sensor_id;sensor_type;location;lat;lon;timestamp;temperature;humidity
8475;DHT22;4274;52.012;8.448;2023-09-19T00:01:28;15.10;99.90
8475;DHT22;4274;52.012;8.448;2023-09-19T00:03:56;15.00;99.90
8475;DHT22;4274;52.012;8.448;2023-09-19T00:06:23;15.00;99.90
8475;DHT22;4274;52.012;8.448;2023-09-19T00:08:54;15.00;99.90
8475;DHT22;4274;52.012;8.448;2023-09-19T00:11:20;15.00;99.90
8475;DHT22;4274;52.012;8.448;2023-09-19T00:13:47;15.00;99.90
8475;DHT22;4274;52.012;8.448;2023-09-19T00:16:15;15.00;99.90
8475;DHT22;4274;52.012;8.448;2023-09-19T00:18:40;15.00;99.90
8475;DHT22;4274;52.012;8.448;2023-09-19T00:21:06;15.00;99.90
8475;DHT22;4274;52.012;8.448;2023-09-19T00:23:32;15.00;99.90
8475;DHT22;4274;52.012;8.448;2023-09-19T00:25:59;15.00;99.90
8475;DHT22;4274;52.012;8.448;2023-09-19T00:28:25;15.00;99.90
8475;DHT22;4274;52.012;8.448;2023-09-19T00:30:51;15.00;99.90
8475;DHT22;4274;52.012;8.448;2023-09-19T00:33:17;15.10;99.90
8475;DHT22;4274;52.012;8.448;2023-09-19T00:35:51;15.10;99.90
8475;DHT22;4274;52.012;8.448;2023-09-19T00:38:18;15.10;99.90
8475;DHT22;4274;52.012;8.448;2023-09-19T00:40:47;15.10;99.90
8475;DHT22;4274;52.012;8.448;2023-09-19T00:43:12;15.10;99.90
8475;DHT22;4274;52.012;8.448;2023-09-19T00:45:39;15.10;99.90
8475;DHT22;4274;52.012;8.448;2023-09-19T00:48:08;15.10;99.90
8475;DHT22;4274;52.012;8.448;2023-09-19T00:50:35;15.00;99.90
8475;DHT22;4274;52.012;8.448;2023-09-19T00:53:01;15.00;99.90
8475;DHT22;4274;52.012;8.448;2023-09-19T00:55:29;15.00;99.90
8475;DHT22;4274;52.012;8.448;2023-09-19T00:57:56;15.00;99.90
8475;DHT22;4274;52.012;8.448;2023-09-19T01:00:22;15.00;99.90
8475;DHT22;4274;52.012;8.448;2023-09-19T01:02:48;15.00;99.90
8475;DHT22;4274;52.012;8.448;2023-09-19T01:05:14;15.00;99.90
8475;DHT22;4274;52.012;8.448;2023-09-19T01:07:41;15.00;99.90
8475;DHT22;4274;52.012;8.448;2023-09-19T01:10:09;15.00;99.90
8475;DHT22;4274;52.012;8.448;2023-09-19T01:13:13;15.00;99.90
8475;DHT22;4274;52.012;8.448;2023-09-19T01:18:30;14.90;99.90
8475;DHT22;4274;52.012;8.448;2023-09-19T01:26:31;15.00;99.90
8475;DHT22;4274;52.012;8.448;2023-09-19T01:31:59;15.00;99.90
8475;DHT22;4274;52.012;8.448;2023-09-19T01:34:27;15.00;99.90
8475;DHT22;4274;52.012;8.448;2023-09-19T01:36:52;15.00;99.90
8475;DHT22;4274;52.012;8.448;2023-09-19T01:39:18;15.00;99.90
8475;DHT22;4274;52.012;8.448;2023-09-19T01:42:08;15.10;99.90
8475;DHT22;4274;52.012;8.448;2023-09-19T01:47:34;15.10;99.90
8475;DHT22;4274;52.012;8.448;2023-09-19T01:52:57;15.10;99.90
8475;DHT22;4274;52.012;8.448;2023-09-19T01:55:27;15.10;99.90
8475;DHT22;4274;52.012;8.448;2023-09-19T01:58:04;15.10;99.90
8475;DHT22;4274;52.012;8.448;2023-09-19T02:00:35;15.10;99.90
8475;DHT22;4274;52.012;8.448;2023-09-19T02:03:02;15.00;99.90
8475;DHT22;4274;52.012;8.448;2023-09-19T02:05:28;15.00;99.90
8475;DHT22;4274;52.012;8.448;2023-09-19T02:07:54;15.00;99.90
8475;DHT22;4274;52.012;8.448;2023-09-19T02:10:21;15.10;99.90
8475;DHT22;4274;52.012;8.448;2023-09-19T02:12:47;15.10;99.90
8475;DHT22;4274;52.012;8.448;2023-09-19T02:15:13;15.10;99.90
8475;DHT22;4274;52.012;8.448;2023-09-19T02:17:41;15.10;99.90
8475;DHT22;4274;52.012;8.448;2023-09-19T02:20:08;15.10;99.90
8475;DHT22;4274;52.012;8.448;2023-09-19T02:22:36;15.10;99.90
8475;DHT22;4274;52.012;8.448;2023-09-19T02:25:02;15.10;99.90
8475;DHT22;4274;52.012;8.448;2023-09-19T02:27:30;15.10;99.90
8475;DHT22;4274;52.012;8.448;2023-09-19T02:29:56;15.10;99.90
8475;DHT22;4274;52.012;8.448;2023-09-19T02:32:21;15.10;99.90
8475;DHT22;4274;52.012;8.448;2023-09-19T02:34:48;15.10;99.90
8475;DHT22;4274;52.012;8.448;2023-09-19T02:37:14;15.10;99.90
8475;DHT22;4274;52.012;8.448;2023-09-19T02:39:41;15.10;99.90
8475;DHT22;4274;52.012;8.448;2023-09-19T02:42:07;15.10;99.90
8475;DHT22;4274;52.012;8.448;2023-09-19T02:44:33;15.10;99.90
8475;DHT22;4274;52.012;8.448;2023-09-19T02:46:59;15.10;99.90
8475;DHT22;4274;52.012;8.448;2023-09-19T02:49:24;15.10;99.90
8475;DHT22;4274;52.012;8.448;2023-09-19T02:51:50;15.00;99.90
8475;DHT22;4274;52.012;8.448;2023-09-19T02:54:17;15.00;99.90
8475;DHT22;4274;52.012;8.448;2023-09-19T02:56:43;15.00;99.90
8475;DHT22;4274;52.012;8.448;2023-09-19T02:59:09;14.90;99.90
8475;DHT22;4274;52.012;8.448;2023-09-19T03:01:36;14.90;99.90
8475;DHT22;4274;52.012;8.448;2023-09-19T03:04:03;14.80;99.90
8475;DHT22;4274;52.012;8.448;2023-09-19T03:06:28;14.80;99.90
8475;DHT22;4274;52.012;8.448;2023-09-19T03:08:56;14.80;99.90
8475;DHT22;4274;52.012;8.448;2023-09-19T03:11:22;14.80;99.90
8475;DHT22;4274;52.012;8.448;2023-09-19T03:13:52;14.80;99.90
8475;DHT22;4274;52.012;8.448;2023-09-19T03:16:18;14.70;99.90
8475;DHT22;4274;52.012;8.448;2023-09-19T03:18:47;14.70;99.90
8475;DHT22;4274;52.012;8.448;2023-09-19T03:21:17;14.70;99.90
8475;DHT22;4274;52.012;8.448;2023-09-19T03:23:43;14.70;99.90
8475;DHT22;4274;52.012;8.448;2023-09-19T03:26:13;14.70;99.90
8475;DHT22;4274;52.012;8.448;2023-09-19T03:28:39;14.70;99.90
8475;DHT22;4274;52.012;8.448;2023-09-19T03:31:06;14.60;99.90
8475;DHT22;4274;52.012;8.448;2023-09-19T03:33:32;14.60;99.90
8475;DHT22;4274;52.012;8.448;2023-09-19T03:35:59;14.60;99.90
8475;DHT22;4274;52.012;8.448;2023-09-19T03:38:27;14.60;99.90
8475;DHT22;4274;52.012;8.448;2023-09-19T03:40:53;14.60;99.90
8475;DHT22;4274;52.012;8.448;2023-09-19T03:43:19;14.60;99.90
8475;DHT22;4274;52.012;8.448;2023-09-19T03:45:44;14.60;99.90
8475;DHT22;4274;52.012;8.448;2023-09-19T03:48:12;14.50;99.90
8475;DHT22;4274;52.012;8.448;2023-09-19T03:50:38;14.50;99.90
8475;DHT22;4274;52.012;8.448;2023-09-19T03:53:04;14.50;99.90
8475;DHT22;4274;52.012;8.448;2023-09-19T03:55:30;14.50;99.90
8475;DHT22;4274;52.012;8.448;2023-09-19T03:57:56;14.50;99.90
8475;DHT22;4274;52.012;8.448;2023-09-19T04:00:22;14.40;99.90
8475;DHT22;4274;52.012;8.448;2023-09-19T04:02:51;14.40;99.90
8475;DHT22;4274;52.012;8.448;2023-09-19T04:05:17;14.40;99.90
8475;DHT22;4274;52.012;8.448;2023-09-19T04:07:42;14.30;99.90
8475;DHT22;4274;52.012;8.448;2023-09-19T04:10:08;14.30;99.90
8475;DHT22;4274;52.012;8.448;2023-09-19T04:12:37;14.30;99.90
8475;DHT22;4274;52.012;8.448;2023-09-19T04:15:02;14.20;99.90
8475;DHT22;4274;52.012;8.448;2023-09-19T04:17:28;14.20;99.90
8475;DHT22;4274;52.012;8.448;2023-09-19T04:19:54;14.10;99.90
8475;DHT22;4274;52.012;8.448;2023-09-19T04:22:19;14.10;99.90
8475;DHT22;4274;52.012;8.448;2023-09-19T04:24:45;14.00;99.90
8475;DHT22;4274;52.012;8.448;2023-09-19T04:27:11;14.00;99.90
8475;DHT22;4274;52.012;8.448;2023-09-19T04:29:39;14.00;99.90
8475;DHT22;4274;52.012;8.448;2023-09-19T04:32:07;13.90;99.90
8475;DHT22;4274;52.012;8.448;2023-09-19T04:34:33;13.90;99.90
8475;DHT22;4274;52.012;8.448;2023-09-19T04:37:00;13.90;99.90
8475;DHT22;4274;52.012;8.448;2023-09-19T04:39:26;13.90;99.90
8475;DHT22;4274;52.012;8.448;2023-09-19T04:41:52;13.80;99.90
8475;DHT22;4274;52.012;8.448;2023-09-19T04:44:18;13.80;99.90
8475;DHT22;4274;52.012;8.448;2023-09-19T04:46:44;13.80;99.90
8475;DHT22;4274;52.012;8.448;2023-09-19T04:49:12;13.70;99.90
8475;DHT22;4274;52.012;8.448;2023-09-19T04:51:40;13.70;99.90
8475;DHT22;4274;52.012;8.448;2023-09-19T04:54:06;13.70;99.90
8475;DHT22;4274;52.012;8.448;2023-09-19T04:56:32;13.70;99.90
8475;DHT22;4274;52.012;8.448;2023-09-19T04:58:59;13.70;99.90
8475;DHT22;4274;52.012;8.448;2023-09-19T05:01:25;13.70;99.90
8475;DHT22;4274;52.012;8.448;2023-09-19T05:03:51;13.70;99.90
8475;DHT22;4274;52.012;8.448;2023-09-19T05:06:20;13.70;99.90
8475;DHT22;4274;52.012;8.448;2023-09-19T05:08:49;13.70;99.90
8475;DHT22;4274;52.012;8.448;2023-09-19T05:11:19;13.70;99.90
8475;DHT22;4274;52.012;8.448;2023-09-19T05:13:47;13.70;99.90
8475;DHT22;4274;52.012;8.448;2023-09-19T05:16:18;13.70;99.90
8475;DHT22;4274;52.012;8.448;2023-09-19T05:18:44;13.70;99.90
8475;DHT22;4274;52.012;8.448;2023-09-19T05:21:09;13.60;99.90
8475;DHT22;4274;52.012;8.448;2023-09-19T05:23:35;13.60;99.90
8475;DHT22;4274;52.012;8.448;2023-09-19T05:26:00;13.60;99.90
8475;DHT22;4274;52.012;8.448;2023-09-19T05:28:27;13.50;99.90
8475;DHT22;4274;52.012;8.448;2023-09-19T05:30:53;13.50;99.90
8475;DHT22;4274;52.012;8.448;2023-09-19T05:33:19;13.50;99.90
8475;DHT22;4274;52.012;8.448;2023-09-19T05:35:45;13.50;99.90
8475;DHT22;4274;52.012;8.448;2023-09-19T05:38:12;13.50;99.90
8475;DHT22;4274;52.012;8.448;2023-09-19T05:40:39;13.50;99.90
8475;DHT22;4274;52.012;8.448;2023-09-19T05:43:07;13.50;99.90
8475;DHT22;4274;52.012;8.448;2023-09-19T05:45:33;13.40;99.90
8475;DHT22;4274;52.012;8.448;2023-09-19T05:48:13;13.50;99.90
8475;DHT22;4274;52.012;8.448;2023-09-19T05:50:41;13.50;99.90
8475;DHT22;4274;52.012;8.448;2023-09-19T05:53:07;13.50;99.90
8475;DHT22;4274;52.012;8.448;2023-09-19T05:55:33;13.50;99.90
8475;DHT22;4274;52.012;8.448;2023-09-19T05:57:59;13.60;99.90
8475;DHT22;4274;52.012;8.448;2023-09-19T06:00:25;13.60;99.90
8475;DHT22;4274;52.012;8.448;2023-09-19T06:02:57;13.60;99.90
8475;DHT22;4274;52.012;8.448;2023-09-19T06:05:24;13.70;99.90
8475;DHT22;4274;52.012;8.448;2023-09-19T06:07:50;13.70;99.90
8475;DHT22;4274;52.012;8.448;2023-09-19T06:10:17;13.80;99.90
8475;DHT22;4274;52.012;8.448;2023-09-19T06:12:43;13.80;99.90
8475;DHT22;4274;52.012;8.448;2023-09-19T06:15:10;13.90;99.90
8475;DHT22;4274;52.012;8.448;2023-09-19T06:17:50;13.90;99.90
8475;DHT22;4274;52.012;8.448;2023-09-19T06:20:16;14.00;99.90
8475;DHT22;4274;52.012;8.448;2023-09-19T06:22:45;14.10;99.90
8475;DHT22;4274;52.012;8.448;2023-09-19T06:25:13;14.20;99.90
8475;DHT22;4274;52.012;8.448;2023-09-19T06:27:42;14.40;99.90
8475;DHT22;4274;52.012;8.448;2023-09-19T06:30:10;14.50;99.90
8475;DHT22;4274;52.012;8.448;2023-09-19T06:32:43;14.60;99.90
8475;DHT22;4274;52.012;8.448;2023-09-19T06:35:15;14.70;99.90
8475;DHT22;4274;52.012;8.448;2023-09-19T06:37:42;14.80;99.90
8475;DHT22;4274;52.012;8.448;2023-09-19T06:40:08;15.00;99.90
8475;DHT22;4274;52.012;8.448;2023-09-19T06:42:39;15.10;99.90
8475;DHT22;4274;52.012;8.448;2023-09-19T06:45:06;15.20;99.90
8475;DHT22;4274;52.012;8.448;2023-09-19T06:47:32;15.30;99.90
8475;DHT22;4274;52.012;8.448;2023-09-19T06:49:57;15.30;99.90
8475;DHT22;4274;52.012;8.448;2023-09-19T06:52:23;15.20;99.90
8475;DHT22;4274;52.012;8.448;2023-09-19T06:54:49;15.20;99.90
8475;DHT22;4274;52.012;8.448;2023-09-19T06:57:16;15.20;99.90
8475;DHT22;4274;52.012;8.448;2023-09-19T06:59:41;15.10;99.90
8475;DHT22;4274;52.012;8.448;2023-09-19T07:02:07;15.10;99.90
8475;DHT22;4274;52.012;8.448;2023-09-19T07:04:33;15.00;99.90
8475;DHT22;4274;52.012;8.448;2023-09-19T07:06:59;15.00;99.90
8475;DHT22;4274;52.012;8.448;2023-09-19T07:09:25;14.90;99.90
8475;DHT22;4274;52.012;8.448;2023-09-19T07:11:52;15.00;99.90
8475;DHT22;4274;52.012;8.448;2023-09-19T07:14:18;14.90;99.90
8475;DHT22;4274;52.012;8.448;2023-09-19T07:16:44;14.90;99.90
8475;DHT22;4274;52.012;8.448;2023-09-19T07:19:10;14.90;99.90
8475;DHT22;4274;52.012;8.448;2023-09-19T07:21:36;14.80;99.90
8475;DHT22;4274;52.012;8.448;2023-09-19T07:24:04;14.80;99.90
8475;DHT22;4274;52.012;8.448;2023-09-19T07:26:30;14.80;99.90
8475;DHT22;4274;52.012;8.448;2023-09-19T07:28:56;14.80;99.90
8475;DHT22;4274;52.012;8.448;2023-09-19T07:31:23;14.90;99.90
8475;DHT22;4274;52.012;8.448;2023-09-19T07:33:49;14.90;99.90
8475;DHT22;4274;52.012;8.448;2023-09-19T07:36:14;15.00;99.90
8475;DHT22;4274;52.012;8.448;2023-09-19T07:38:41;15.10;99.90
8475;DHT22;4274;52.012;8.448;2023-09-19T07:41:08;15.20;99.90
8475;DHT22;4274;52.012;8.448;2023-09-19T07:43:35;15.30;99.90
8475;DHT22;4274;52.012;8.448;2023-09-19T07:46:05;15.50;99.90
8475;DHT22;4274;52.012;8.448;2023-09-19T07:48:33;15.70;99.90
8475;DHT22;4274;52.012;8.448;2023-09-19T07:51:05;15.80;99.90
8475;DHT22;4274;52.012;8.448;2023-09-19T07:53:32;15.80;99.90
8475;DHT22;4274;52.012;8.448;2023-09-19T07:56:07;15.90;99.90
8475;DHT22;4274;52.012;8.448;2023-09-19T07:58:34;15.90;99.90
8475;DHT22;4274;52.012;8.448;2023-09-19T08:01:05;16.00;99.90
8475;DHT22;4274;52.012;8.448;2023-09-19T08:03:31;16.00;99.90
8475;DHT22;4274;52.012;8.448;2023-09-19T08:05:57;16.10;99.90
8475;DHT22;4274;52.012;8.448;2023-09-19T08:08:26;16.00;99.90
8475;DHT22;4274;52.012;8.448;2023-09-19T08:10:55;16.00;99.90
8475;DHT22;4274;52.012;8.448;2023-09-19T08:13:25;16.00;99.90
8475;DHT22;4274;52.012;8.448;2023-09-19T08:15:51;16.10;99.90
8475;DHT22;4274;52.012;8.448;2023-09-19T08:18:19;16.00;99.90
8475;DHT22;4274;52.012;8.448;2023-09-19T08:20:52;16.00;99.90
8475;DHT22;4274;52.012;8.448;2023-09-19T08:23:18;16.10;99.90
8475;DHT22;4274;52.012;8.448;2023-09-19T08:25:48;16.20;99.90
8475;DHT22;4274;52.012;8.448;2023-09-19T08:28:14;16.20;99.90
8475;DHT22;4274;52.012;8.448;2023-09-19T08:30:47;16.40;99.90
8475;DHT22;4274;52.012;8.448;2023-09-19T08:33:12;16.40;99.90
8475;DHT22;4274;52.012;8.448;2023-09-19T08:35:40;16.50;99.90
8475;DHT22;4274;52.012;8.448;2023-09-19T08:38:09;16.50;99.90
8475;DHT22;4274;52.012;8.448;2023-09-19T08:40:39;16.60;99.90
8475;DHT22;4274;52.012;8.448;2023-09-19T08:43:06;16.60;99.90
8475;DHT22;4274;52.012;8.448;2023-09-19T08:45:33;16.70;99.90
8475;DHT22;4274;52.012;8.448;2023-09-19T08:50:55;16.70;99.90
8475;DHT22;4274;52.012;8.448;2023-09-19T08:55:57;16.80;99.90
8475;DHT22;4274;52.012;8.448;2023-09-19T08:58:29;16.70;99.90
8475;DHT22;4274;52.012;8.448;2023-09-19T09:00:56;16.80;99.90
8475;DHT22;4274;52.012;8.448;2023-09-19T09:03:25;16.90;99.90
8475;DHT22;4274;52.012;8.448;2023-09-19T09:05:51;16.90;99.90
8475;DHT22;4274;52.012;8.448;2023-09-19T09:08:19;16.90;99.90
8475;DHT22;4274;52.012;8.448;2023-09-19T09:10:47;16.90;99.90
8475;DHT22;4274;52.012;8.448;2023-09-19T09:13:14;16.90;99.90
8475;DHT22;4274;52.012;8.448;2023-09-19T09:15:41;16.80;99.90
8475;DHT22;4274;52.012;8.448;2023-09-19T09:18:07;16.80;99.90
8475;DHT22;4274;52.012;8.448;2023-09-19T09:20:32;16.90;99.90
8475;DHT22;4274;52.012;8.448;2023-09-19T09:22:58;16.90;99.90
8475;DHT22;4274;52.012;8.448;2023-09-19T09:28:20;17.10;99.90
8475;DHT22;4274;52.012;8.448;2023-09-19T09:30:46;17.10;99.90
8475;DHT22;4274;52.012;8.448;2023-09-19T09:33:13;17.10;99.90
8475;DHT22;4274;52.012;8.448;2023-09-19T09:35:56;17.20;99.90
8475;DHT22;4274;52.012;8.448;2023-09-19T09:38:24;17.30;99.90
8475;DHT22;4274;52.012;8.448;2023-09-19T09:40:56;17.40;99.90
8475;DHT22;4274;52.012;8.448;2023-09-19T09:43:45;17.50;99.90
8475;DHT22;4274;52.012;8.448;2023-09-19T09:46:19;17.50;99.90
8475;DHT22;4274;52.012;8.448;2023-09-19T09:48:55;17.50;99.90
8475;DHT22;4274;52.012;8.448;2023-09-19T09:51:48;17.60;99.90
8475;DHT22;4274;52.012;8.448;2023-09-19T09:54:23;17.70;99.90
8475;DHT22;4274;52.012;8.448;2023-09-19T09:59:22;17.80;99.90
8475;DHT22;4274;52.012;8.448;2023-09-19T10:01:49;18.00;99.90
8475;DHT22;4274;52.012;8.448;2023-09-19T10:04:35;18.30;99.90
8475;DHT22;4274;52.012;8.448;2023-09-19T10:07:08;18.60;99.90
8475;DHT22;4274;52.012;8.448;2023-09-19T10:09:46;19.00;99.90
8475;DHT22;4274;52.012;8.448;2023-09-19T10:12:13;19.20;99.90
8475;DHT22;4274;52.012;8.448;2023-09-19T10:14:41;19.10;99.90
8475;DHT22;4274;52.012;8.448;2023-09-19T10:17:10;19.20;99.90
8475;DHT22;4274;52.012;8.448;2023-09-19T10:19:58;19.30;99.90
8475;DHT22;4274;52.012;8.448;2023-09-19T10:22:26;19.30;99.90
8475;DHT22;4274;52.012;8.448;2023-09-19T10:24:53;19.30;99.90
8475;DHT22;4274;52.012;8.448;2023-09-19T10:27:21;19.30;99.90
8475;DHT22;4274;52.012;8.448;2023-09-19T10:29:49;19.40;99.90
8475;DHT22;4274;52.012;8.448;2023-09-19T10:32:22;19.40;99.90
8475;DHT22;4274;52.012;8.448;2023-09-19T10:34:49;19.40;99.90
8475;DHT22;4274;52.012;8.448;2023-09-19T10:37:16;19.60;99.90
8475;DHT22;4274;52.012;8.448;2023-09-19T10:39:46;19.50;99.90
8475;DHT22;4274;52.012;8.448;2023-09-19T10:42:16;19.20;99.90
8475;DHT22;4274;52.012;8.448;2023-09-19T10:44:42;19.20;99.90
8475;DHT22;4274;52.012;8.448;2023-09-19T10:47:10;19.30;99.90
8475;DHT22;4274;52.012;8.448;2023-09-19T10:49:46;19.40;99.90
8475;DHT22;4274;52.012;8.448;2023-09-19T10:52:13;19.50;99.90
8475;DHT22;4274;52.012;8.448;2023-09-19T10:54:46;19.60;99.90
8475;DHT22;4274;52.012;8.448;2023-09-19T10:57:23;19.80;99.90
8475;DHT22;4274;52.012;8.448;2023-09-19T11:00:06;20.20;99.90
8475;DHT22;4274;52.012;8.448;2023-09-19T11:05:39;20.80;99.90
8475;DHT22;4274;52.012;8.448;2023-09-19T11:08:07;20.80;99.90
8475;DHT22;4274;52.012;8.448;2023-09-19T11:10:46;20.70;99.90
8475;DHT22;4274;52.012;8.448;2023-09-19T11:13:29;20.50;99.90
8475;DHT22;4274;52.012;8.448;2023-09-19T11:26:47;22.30;99.90
8475;DHT22;4274;52.012;8.448;2023-09-19T11:29:29;22.20;99.90
8475;DHT22;4274;52.012;8.448;2023-09-19T11:31:57;22.40;99.90
8475;DHT22;4274;52.012;8.448;2023-09-19T11:39:40;23.50;99.90
8475;DHT22;4274;52.012;8.448;2023-09-19T11:42:45;23.50;99.90
8475;DHT22;4274;52.012;8.448;2023-09-19T11:48:15;22.30;99.90
8475;DHT22;4274;52.012;8.448;2023-09-19T11:50:45;21.70;99.90
8475;DHT22;4274;52.012;8.448;2023-09-19T11:53:12;21.40;99.90
8475;DHT22;4274;52.012;8.448;2023-09-19T11:55:40;21.30;99.90
8475;DHT22;4274;52.012;8.448;2023-09-19T11:58:09;21.20;99.90
8475;DHT22;4274;52.012;8.448;2023-09-19T12:00:35;21.10;99.90
8475;DHT22;4274;52.012;8.448;2023-09-19T12:03:09;21.00;99.90
8475;DHT22;4274;52.012;8.448;2023-09-19T12:05:35;21.00;99.90
8475;DHT22;4274;52.012;8.448;2023-09-19T12:08:05;21.20;99.90
8475;DHT22;4274;52.012;8.448;2023-09-19T12:11:01;21.40;99.90
8475;DHT22;4274;52.012;8.448;2023-09-19T12:13:27;21.40;99.90
8475;DHT22;4274;52.012;8.448;2023-09-19T12:15:55;21.20;99.90
8475;DHT22;4274;52.012;8.448;2023-09-19T12:18:30;20.90;99.90
8475;DHT22;4274;52.012;8.448;2023-09-19T12:20:56;20.80;99.90
8475;DHT22;4274;52.012;8.448;2023-09-19T12:23:23;20.60;99.90
8475;DHT22;4274;52.012;8.448;2023-09-19T12:25:49;20.50;99.90
8475;DHT22;4274;52.012;8.448;2023-09-19T12:28:19;20.70;99.90
8475;DHT22;4274;52.012;8.448;2023-09-19T12:30:47;20.90;99.90
8475;DHT22;4274;52.012;8.448;2023-09-19T12:33:17;21.40;99.90
8475;DHT22;4274;52.012;8.448;2023-09-19T12:35:46;21.80;99.90
8475;DHT22;4274;52.012;8.448;2023-09-19T12:38:23;22.30;99.90
8475;DHT22;4274;52.012;8.448;2023-09-19T12:40:50;22.80;99.90
8475;DHT22;4274;52.012;8.448;2023-09-19T12:43:17;23.30;99.90
8475;DHT22;4274;52.012;8.448;2023-09-19T12:45:43;23.70;99.90
8475;DHT22;4274;52.012;8.448;2023-09-19T12:48:23;24.20;99.90
8475;DHT22;4274;52.012;8.448;2023-09-19T12:51:11;24.20;99.90
8475;DHT22;4274;52.012;8.448;2023-09-19T12:53:43;23.80;99.90
8475;DHT22;4274;52.012;8.448;2023-09-19T12:56:13;23.40;99.90
8475;DHT22;4274;52.012;8.448;2023-09-19T13:01:19;23.50;99.90
8475;DHT22;4274;52.012;8.448;2023-09-19T13:03:45;23.40;99.90
8475;DHT22;4274;52.012;8.448;2023-09-19T13:06:11;23.40;99.90
8475;DHT22;4274;52.012;8.448;2023-09-19T13:08:39;23.10;99.90
8475;DHT22;4274;52.012;8.448;2023-09-19T13:13:37;22.50;99.90
8475;DHT22;4274;52.012;8.448;2023-09-19T13:16:03;22.20;99.90
8475;DHT22;4274;52.012;8.448;2023-09-19T13:18:42;22.50;99.90
8475;DHT22;4274;52.012;8.448;2023-09-19T13:21:11;23.20;99.90
8475;DHT22;4274;52.012;8.448;2023-09-19T13:23:44;23.50;99.90
8475;DHT22;4274;52.012;8.448;2023-09-19T13:26:10;23.30;99.90
8475;DHT22;4274;52.012;8.448;2023-09-19T13:28:38;23.20;99.90
8475;DHT22;4274;52.012;8.448;2023-09-19T13:31:03;23.50;99.90
8475;DHT22;4274;52.012;8.448;2023-09-19T13:33:29;23.60;99.90
8475;DHT22;4274;52.012;8.448;2023-09-19T13:35:55;23.70;99.90
8475;DHT22;4274;52.012;8.448;2023-09-19T13:38:22;23.60;99.90
8475;DHT22;4274;52.012;8.448;2023-09-19T13:40:48;23.00;99.90
8475;DHT22;4274;52.012;8.448;2023-09-19T13:43:13;22.40;99.90
8475;DHT22;4274;52.012;8.448;2023-09-19T13:45:40;21.90;99.90
8475;DHT22;4274;52.012;8.448;2023-09-19T13:48:08;21.50;99.90
8475;DHT22;4274;52.012;8.448;2023-09-19T13:50:34;21.30;99.90
8475;DHT22;4274;52.012;8.448;2023-09-19T13:53:02;21.20;99.90
8475;DHT22;4274;52.012;8.448;2023-09-19T13:55:28;21.10;99.90
8475;DHT22;4274;52.012;8.448;2023-09-19T13:57:54;21.10;99.90
8475;DHT22;4274;52.012;8.448;2023-09-19T14:00:21;21.20;99.90
8475;DHT22;4274;52.012;8.448;2023-09-19T14:02:48;21.20;99.90
8475;DHT22;4274;52.012;8.448;2023-09-19T14:05:15;21.10;99.90
8475;DHT22;4274;52.012;8.448;2023-09-19T14:07:42;21.20;99.90
8475;DHT22;4274;52.012;8.448;2023-09-19T14:10:08;21.30;99.90
8475;DHT22;4274;52.012;8.448;2023-09-19T14:12:36;21.40;99.90
8475;DHT22;4274;52.012;8.448;2023-09-19T14:15:01;21.30;99.90
8475;DHT22;4274;52.012;8.448;2023-09-19T14:17:27;21.20;99.90
8475;DHT22;4274;52.012;8.448;2023-09-19T14:19:53;21.10;99.90
8475;DHT22;4274;52.012;8.448;2023-09-19T14:22:19;21.00;99.90
8475;DHT22;4274;52.012;8.448;2023-09-19T14:24:45;20.80;99.90
8475;DHT22;4274;52.012;8.448;2023-09-19T14:27:10;20.70;99.90
8475;DHT22;4274;52.012;8.448;2023-09-19T14:29:36;20.60;99.90
8475;DHT22;4274;52.012;8.448;2023-09-19T14:32:02;20.50;99.90
8475;DHT22;4274;52.012;8.448;2023-09-19T14:34:28;20.50;99.90
8475;DHT22;4274;52.012;8.448;2023-09-19T14:36:53;20.50;99.90
8475;DHT22;4274;52.012;8.448;2023-09-19T14:39:22;20.40;99.90
8475;DHT22;4274;52.012;8.448;2023-09-19T14:41:49;20.30;99.90
8475;DHT22;4274;52.012;8.448;2023-09-19T14:44:15;20.20;99.90
8475;DHT22;4274;52.012;8.448;2023-09-19T14:46:43;20.20;99.90
8475;DHT22;4274;52.012;8.448;2023-09-19T14:49:12;20.30;99.90
8475;DHT22;4274;52.012;8.448;2023-09-19T14:51:38;20.40;99.90
8475;DHT22;4274;52.012;8.448;2023-09-19T14:54:05;20.30;99.90
8475;DHT22;4274;52.012;8.448;2023-09-19T14:56:32;20.20;99.90
8475;DHT22;4274;52.012;8.448;2023-09-19T14:58:58;20.00;99.90
8475;DHT22;4274;52.012;8.448;2023-09-19T15:01:23;20.00;99.90
8475;DHT22;4274;52.012;8.448;2023-09-19T15:03:49;19.80;99.90
8475;DHT22;4274;52.012;8.448;2023-09-19T15:06:15;19.70;99.90
8475;DHT22;4274;52.012;8.448;2023-09-19T15:08:43;19.60;99.90
8475;DHT22;4274;52.012;8.448;2023-09-19T15:11:16;19.50;99.90
8475;DHT22;4274;52.012;8.448;2023-09-19T15:13:43;19.40;99.90
8475;DHT22;4274;52.012;8.448;2023-09-19T15:16:09;19.40;99.90
8475;DHT22;4274;52.012;8.448;2023-09-19T15:18:38;19.30;99.90
8475;DHT22;4274;52.012;8.448;2023-09-19T15:21:05;19.30;99.90
8475;DHT22;4274;52.012;8.448;2023-09-19T15:23:31;19.30;99.90
8475;DHT22;4274;52.012;8.448;2023-09-19T15:26:03;19.30;99.90
8475;DHT22;4274;52.012;8.448;2023-09-19T15:28:29;19.30;99.90
8475;DHT22;4274;52.012;8.448;2023-09-19T15:31:07;19.20;99.90
8475;DHT22;4274;52.012;8.448;2023-09-19T15:33:34;19.20;99.90
8475;DHT22;4274;52.012;8.448;2023-09-19T15:36:07;19.20;99.90
8475;DHT22;4274;52.012;8.448;2023-09-19T15:41:30;19.10;99.90
8475;DHT22;4274;52.012;8.448;2023-09-19T15:43:58;19.10;99.90
8475;DHT22;4274;52.012;8.448;2023-09-19T15:46:27;19.10;99.90
8475;DHT22;4274;52.012;8.448;2023-09-19T15:48:53;19.10;99.90
8475;DHT22;4274;52.012;8.448;2023-09-19T15:51:19;19.10;99.90
8475;DHT22;4274;52.012;8.448;2023-09-19T15:53:46;19.10;99.90
8475;DHT22;4274;52.012;8.448;2023-09-19T15:56:13;19.10;99.90
8475;DHT22;4274;52.012;8.448;2023-09-19T15:58:44;19.00;99.90
8475;DHT22;4274;52.012;8.448;2023-09-19T16:01:10;19.00;99.90
8475;DHT22;4274;52.012;8.448;2023-09-19T16:03:36;19.00;99.90
8475;DHT22;4274;52.012;8.448;2023-09-19T16:06:11;18.90;99.90
8475;DHT22;4274;52.012;8.448;2023-09-19T16:08:42;18.90;99.90
8475;DHT22;4274;52.012;8.448;2023-09-19T16:11:09;18.90;99.90
8475;DHT22;4274;52.012;8.448;2023-09-19T16:13:38;18.80;99.90
8475;DHT22;4274;52.012;8.448;2023-09-19T16:16:04;18.80;99.90
8475;DHT22;4274;52.012;8.448;2023-09-19T16:18:30;18.80;99.90
8475;DHT22;4274;52.012;8.448;2023-09-19T16:21:02;18.80;99.90
8475;DHT22;4274;52.012;8.448;2023-09-19T16:23:29;18.80;99.90
8475;DHT22;4274;52.012;8.448;2023-09-19T16:26:02;18.80;99.90
8475;DHT22;4274;52.012;8.448;2023-09-19T16:28:30;18.80;99.90
8475;DHT22;4274;52.012;8.448;2023-09-19T16:30:58;18.80;99.90
8475;DHT22;4274;52.012;8.448;2023-09-19T16:33:24;18.70;99.90
8475;DHT22;4274;52.012;8.448;2023-09-19T16:35:50;18.60;99.90
8475;DHT22;4274;52.012;8.448;2023-09-19T16:38:15;18.50;99.90
8475;DHT22;4274;52.012;8.448;2023-09-19T16:40:54;18.50;99.90
8475;DHT22;4274;52.012;8.448;2023-09-19T16:43:21;18.40;99.90
8475;DHT22;4274;52.012;8.448;2023-09-19T16:45:57;18.30;99.90
8475;DHT22;4274;52.012;8.448;2023-09-19T16:48:27;18.30;99.90
8475;DHT22;4274;52.012;8.448;2023-09-19T16:50:53;18.20;99.90
8475;DHT22;4274;52.012;8.448;2023-09-19T16:53:19;18.20;99.90
8475;DHT22;4274;52.012;8.448;2023-09-19T16:55:47;18.10;99.90
8475;DHT22;4274;52.012;8.448;2023-09-19T16:58:13;18.20;99.90
8475;DHT22;4274;52.012;8.448;2023-09-19T17:00:39;18.10;99.90
8475;DHT22;4274;52.012;8.448;2023-09-19T17:03:05;18.10;99.90
8475;DHT22;4274;52.012;8.448;2023-09-19T17:05:32;18.10;99.90
8475;DHT22;4274;52.012;8.448;2023-09-19T17:07:58;18.10;99.90